sensor_id;sensor_type;location;lat;lon;timestamp;temperature;humidity
10089;DHT22;51898;49.864;8.550;2023-10-09T00:00:19;13.20;96.60
10089;DHT22;51898;49.864;8.550;2023-10-09T00:03:46;13.20;96.80
10089;DHT22;51898;49.864;8.550;2023-10-09T00:06:53;13.20;96.80
10089;DHT22;51898;49.864;8.550;2023-10-09T00:09:59;13.30;96.50
10089;DHT22;51898;49.864;8.550;2023-10-09T00:13:01;13.30;96.40
10089;DHT22;51898;49.864;8.550;2023-10-09T00:16:05;13.30;96.30
10089;DHT22;51898;49.864;8.550;2023-10-09T00:19:16;13.30;95.90
10089;DHT22;51898;49.864;8.550;2023-10-09T00:22:33;13.30;95.80
10089;DHT22;51898;49.864;8.550;2023-10-09T00:25:39;13.20;95.80
10089;DHT22;51898;49.864;8.550;2023-10-09T00:28:49;13.20;96.00
10089;DHT22;51898;49.864;8.550;2023-10-09T00:31:53;13.30;96.00
10089;DHT22;51898;49.864;8.550;2023-10-09T00:35:15;13.30;95.90
10089;DHT22;51898;49.864;8.550;2023-10-09T00:38:36;13.30;95.70
10089;DHT22;51898;49.864;8.550;2023-10-09T00:41:40;13.30;95.50
10089;DHT22;51898;49.864;8.550;2023-10-09T00:44:43;13.30;95.60
10089;DHT22;51898;49.864;8.550;2023-10-09T00:47:45;13.30;95.50
10089;DHT22;51898;49.864;8.550;2023-10-09T00:50:49;13.30;95.40
10089;DHT22;51898;49.864;8.550;2023-10-09T00:53:57;13.30;95.40
10089;DHT22;51898;49.864;8.550;2023-10-09T00:57:01;13.30;95.40
10089;DHT22;51898;49.864;8.550;2023-10-09T01:00:09;13.30;95.30
10089;DHT22;51898;49.864;8.550;2023-10-09T01:03:25;13.20;95.20
10089;DHT22;51898;49.864;8.550;2023-10-09T01:06:29;13.20;95.20
10089;DHT22;51898;49.864;8.550;2023-10-09T01:09:35;13.20;95.20
10089;DHT22;51898;49.864;8.550;2023-10-09T01:12:40;13.10;95.20
10089;DHT22;51898;49.864;8.550;2023-10-09T01:15:45;13.10;95.20
10089;DHT22;51898;49.864;8.550;2023-10-09T01:18:49;13.20;95.20
10089;DHT22;51898;49.864;8.550;2023-10-09T01:21:52;13.10;95.20
10089;DHT22;51898;49.864;8.550;2023-10-09T01:24:53;13.10;95.30
10089;DHT22;51898;49.864;8.550;2023-10-09T01:27:57;13.10;95.40
10089;DHT22;51898;49.864;8.550;2023-10-09T01:30:58;13.10;95.50
10089;DHT22;51898;49.864;8.550;2023-10-09T01:34:02;13.10;95.60
10089;DHT22;51898;49.864;8.550;2023-10-09T01:37:06;13.20;95.70
10089;DHT22;51898;49.864;8.550;2023-10-09T01:40:14;13.20;95.70
10089;DHT22;51898;49.864;8.550;2023-10-09T01:43:26;13.20;95.80
10089;DHT22;51898;49.864;8.550;2023-10-09T01:46:28;13.20;95.90
10089;DHT22;51898;49.864;8.550;2023-10-09T01:49:37;13.20;96.00
10089;DHT22;51898;49.864;8.550;2023-10-09T01:52:43;13.20;95.90
10089;DHT22;51898;49.864;8.550;2023-10-09T01:55:44;13.20;96.00
10089;DHT22;51898;49.864;8.550;2023-10-09T01:58:47;13.20;96.00
10089;DHT22;51898;49.864;8.550;2023-10-09T02:01:49;13.20;96.10
10089;DHT22;51898;49.864;8.550;2023-10-09T02:04:59;13.10;96.00
10089;DHT22;51898;49.864;8.550;2023-10-09T02:08:06;13.10;96.00
10089;DHT22;51898;49.864;8.550;2023-10-09T02:11:14;13.10;96.10
10089;DHT22;51898;49.864;8.550;2023-10-09T02:14:25;13.10;96.00
10089;DHT22;51898;49.864;8.550;2023-10-09T02:17:27;13.10;96.00
10089;DHT22;51898;49.864;8.550;2023-10-09T02:20:31;13.20;95.90
10089;DHT22;51898;49.864;8.550;2023-10-09T02:23:34;13.20;96.00
10089;DHT22;51898;49.864;8.550;2023-10-09T02:26:48;13.20;95.90
10089;DHT22;51898;49.864;8.550;2023-10-09T02:29:52;13.20;96.00
10089;DHT22;51898;49.864;8.550;2023-10-09T02:32:54;13.20;96.10
10089;DHT22;51898;49.864;8.550;2023-10-09T02:36:08;13.20;96.30
10089;DHT22;51898;49.864;8.550;2023-10-09T02:39:11;13.20;96.30
10089;DHT22;51898;49.864;8.550;2023-10-09T02:42:25;13.30;96.20
10089;DHT22;51898;49.864;8.550;2023-10-09T02:45:29;13.30;96.10
10089;DHT22;51898;49.864;8.550;2023-10-09T02:48:36;13.30;96.00
10089;DHT22;51898;49.864;8.550;2023-10-09T02:51:38;13.40;95.90
10089;DHT22;51898;49.864;8.550;2023-10-09T02:54:43;13.40;95.70
10089;DHT22;51898;49.864;8.550;2023-10-09T02:57:48;13.40;95.60
10089;DHT22;51898;49.864;8.550;2023-10-09T03:00:53;13.30;95.50
10089;DHT22;51898;49.864;8.550;2023-10-09T03:03:54;13.40;95.30
10089;DHT22;51898;49.864;8.550;2023-10-09T03:07:01;13.40;95.20
10089;DHT22;51898;49.864;8.550;2023-10-09T03:10:06;13.40;95.10
10089;DHT22;51898;49.864;8.550;2023-10-09T03:13:11;13.40;95.00
10089;DHT22;51898;49.864;8.550;2023-10-09T03:16:12;13.40;94.80
10089;DHT22;51898;49.864;8.550;2023-10-09T03:19:25;13.40;94.70
10089;DHT22;51898;49.864;8.550;2023-10-09T03:22:28;13.40;94.60
10089;DHT22;51898;49.864;8.550;2023-10-09T03:25:31;13.40;94.60
10089;DHT22;51898;49.864;8.550;2023-10-09T03:28:32;13.40;94.60
10089;DHT22;51898;49.864;8.550;2023-10-09T03:31:35;13.40;94.40
10089;DHT22;51898;49.864;8.550;2023-10-09T03:34:38;13.40;94.30
10089;DHT22;51898;49.864;8.550;2023-10-09T03:37:40;13.40;94.30
10089;DHT22;51898;49.864;8.550;2023-10-09T03:40:42;13.40;94.20
10089;DHT22;51898;49.864;8.550;2023-10-09T03:43:44;13.40;94.30
10089;DHT22;51898;49.864;8.550;2023-10-09T03:46:48;13.40;94.30
10089;DHT22;51898;49.864;8.550;2023-10-09T03:49:52;13.40;94.40
10089;DHT22;51898;49.864;8.550;2023-10-09T03:52:55;13.40;94.30
10089;DHT22;51898;49.864;8.550;2023-10-09T03:55:57;13.40;94.40
10089;DHT22;51898;49.864;8.550;2023-10-09T03:59:00;13.40;94.30
10089;DHT22;51898;49.864;8.550;2023-10-09T04:02:04;13.50;94.30
10089;DHT22;51898;49.864;8.550;2023-10-09T04:05:06;13.50;94.10
10089;DHT22;51898;49.864;8.550;2023-10-09T04:08:12;13.50;94.20
10089;DHT22;51898;49.864;8.550;2023-10-09T04:11:21;13.50;94.10
10089;DHT22;51898;49.864;8.550;2023-10-09T04:14:26;13.60;94.00
10089;DHT22;51898;49.864;8.550;2023-10-09T04:17:33;13.60;94.00
10089;DHT22;51898;49.864;8.550;2023-10-09T04:20:36;13.70;93.80
10089;DHT22;51898;49.864;8.550;2023-10-09T04:24:13;13.70;93.60
10089;DHT22;51898;49.864;8.550;2023-10-09T04:27:15;13.70;93.40
10089;DHT22;51898;49.864;8.550;2023-10-09T04:30:19;13.80;93.20
10089;DHT22;51898;49.864;8.550;2023-10-09T04:33:22;13.80;93.00
10089;DHT22;51898;49.864;8.550;2023-10-09T04:36:36;13.80;92.90
10089;DHT22;51898;49.864;8.550;2023-10-09T04:39:47;13.80;92.70
10089;DHT22;51898;49.864;8.550;2023-10-09T04:42:50;13.80;92.70
10089;DHT22;51898;49.864;8.550;2023-10-09T04:46:00;13.90;92.60
10089;DHT22;51898;49.864;8.550;2023-10-09T04:49:11;13.90;92.40
10089;DHT22;51898;49.864;8.550;2023-10-09T04:52:29;14.00;92.20
10089;DHT22;51898;49.864;8.550;2023-10-09T04:55:31;14.00;91.90
10089;DHT22;51898;49.864;8.550;2023-10-09T04:58:40;14.00;91.70
10089;DHT22;51898;49.864;8.550;2023-10-09T05:01:42;14.10;91.50
10089;DHT22;51898;49.864;8.550;2023-10-09T05:04:59;14.10;91.30
10089;DHT22;51898;49.864;8.550;2023-10-09T05:08:39;14.20;91.00
10089;DHT22;51898;49.864;8.550;2023-10-09T05:11:47;14.20;90.70
10089;DHT22;51898;49.864;8.550;2023-10-09T05:14:52;14.30;90.40
10089;DHT22;51898;49.864;8.550;2023-10-09T05:18:10;14.30;90.20
10089;DHT22;51898;49.864;8.550;2023-10-09T05:21:17;14.20;90.30
10089;DHT22;51898;49.864;8.550;2023-10-09T05:24:34;14.30;90.30
10089;DHT22;51898;49.864;8.550;2023-10-09T05:27:49;14.30;90.10
10089;DHT22;51898;49.864;8.550;2023-10-09T05:30:54;14.30;90.20
10089;DHT22;51898;49.864;8.550;2023-10-09T05:34:19;14.30;90.10
10089;DHT22;51898;49.864;8.550;2023-10-09T05:37:21;14.30;89.90
10089;DHT22;51898;49.864;8.550;2023-10-09T05:40:27;14.30;89.90
10089;DHT22;51898;49.864;8.550;2023-10-09T05:43:32;14.30;89.90
10089;DHT22;51898;49.864;8.550;2023-10-09T05:46:52;14.30;89.80
10089;DHT22;51898;49.864;8.550;2023-10-09T05:50:27;14.40;89.60
10089;DHT22;51898;49.864;8.550;2023-10-09T05:53:29;14.40;89.60
10089;DHT22;51898;49.864;8.550;2023-10-09T05:56:46;14.40;89.70
10089;DHT22;51898;49.864;8.550;2023-10-09T06:00:07;14.40;89.70
10089;DHT22;51898;49.864;8.550;2023-10-09T06:03:28;14.40;89.60
10089;DHT22;51898;49.864;8.550;2023-10-09T06:06:49;14.50;89.50
10089;DHT22;51898;49.864;8.550;2023-10-09T06:10:12;14.50;89.30
10089;DHT22;51898;49.864;8.550;2023-10-09T06:13:34;14.60;89.10
10089;DHT22;51898;49.864;8.550;2023-10-09T06:16:48;14.60;88.80
10089;DHT22;51898;49.864;8.550;2023-10-09T06:19:59;14.70;88.50
10089;DHT22;51898;49.864;8.550;2023-10-09T06:23:21;14.80;88.00
10089;DHT22;51898;49.864;8.550;2023-10-09T06:26:44;14.80;87.60
10089;DHT22;51898;49.864;8.550;2023-10-09T06:30:01;14.90;87.10
10089;DHT22;51898;49.864;8.550;2023-10-09T06:33:21;15.00;87.00
10089;DHT22;51898;49.864;8.550;2023-10-09T06:36:31;15.00;86.50
10089;DHT22;51898;49.864;8.550;2023-10-09T06:39:34;15.10;86.30
10089;DHT22;51898;49.864;8.550;2023-10-09T06:42:54;15.20;85.90
10089;DHT22;51898;49.864;8.550;2023-10-09T06:45:57;15.20;85.70
10089;DHT22;51898;49.864;8.550;2023-10-09T06:49:00;15.20;85.50
10089;DHT22;51898;49.864;8.550;2023-10-09T06:52:16;15.30;85.40
10089;DHT22;51898;49.864;8.550;2023-10-09T06:55:38;15.40;85.20
10089;DHT22;51898;49.864;8.550;2023-10-09T06:58:52;15.40;85.20
10089;DHT22;51898;49.864;8.550;2023-10-09T07:01:59;15.40;84.90
10089;DHT22;51898;49.864;8.550;2023-10-09T07:05:10;15.50;84.80
10089;DHT22;51898;49.864;8.550;2023-10-09T07:08:14;15.50;84.70
10089;DHT22;51898;49.864;8.550;2023-10-09T07:11:41;15.50;84.70
10089;DHT22;51898;49.864;8.550;2023-10-09T07:14:43;15.60;84.70
10089;DHT22;51898;49.864;8.550;2023-10-09T07:17:45;15.60;84.40
10089;DHT22;51898;49.864;8.550;2023-10-09T07:20:47;15.60;84.50
10089;DHT22;51898;49.864;8.550;2023-10-09T07:24:00;15.70;84.30
10089;DHT22;51898;49.864;8.550;2023-10-09T07:27:26;15.70;84.10
10089;DHT22;51898;49.864;8.550;2023-10-09T07:31:06;15.80;84.10
10089;DHT22;51898;49.864;8.550;2023-10-09T07:34:12;15.80;83.50
10089;DHT22;51898;49.864;8.550;2023-10-09T07:37:32;15.90;83.50
10089;DHT22;51898;49.864;8.550;2023-10-09T07:40:37;16.00;82.90
10089;DHT22;51898;49.864;8.550;2023-10-09T07:43:57;16.00;82.50
10089;DHT22;51898;49.864;8.550;2023-10-09T07:46:59;16.10;82.20
10089;DHT22;51898;49.864;8.550;2023-10-09T07:50:24;16.20;82.00
10089;DHT22;51898;49.864;8.550;2023-10-09T07:53:31;16.30;81.80
10089;DHT22;51898;49.864;8.550;2023-10-09T07:56:45;16.40;81.20
10089;DHT22;51898;49.864;8.550;2023-10-09T07:59:47;16.40;81.20
10089;DHT22;51898;49.864;8.550;2023-10-09T08:03:03;16.50;81.00
10089;DHT22;51898;49.864;8.550;2023-10-09T08:06:12;16.60;81.00
10089;DHT22;51898;49.864;8.550;2023-10-09T08:09:32;16.60;80.80
10089;DHT22;51898;49.864;8.550;2023-10-09T08:12:49;16.70;80.70
10089;DHT22;51898;49.864;8.550;2023-10-09T08:15:56;16.80;80.20
10089;DHT22;51898;49.864;8.550;2023-10-09T08:18:58;17.00;79.90
10089;DHT22;51898;49.864;8.550;2023-10-09T08:22:00;17.10;79.60
10089;DHT22;51898;49.864;8.550;2023-10-09T08:25:21;17.20;79.40
10089;DHT22;51898;49.864;8.550;2023-10-09T08:28:36;17.30;79.20
10089;DHT22;51898;49.864;8.550;2023-10-09T08:31:47;17.40;78.70
10089;DHT22;51898;49.864;8.550;2023-10-09T08:34:58;17.40;78.70
10089;DHT22;51898;49.864;8.550;2023-10-09T08:38:03;17.50;78.50
10089;DHT22;51898;49.864;8.550;2023-10-09T08:41:12;17.50;78.40
10089;DHT22;51898;49.864;8.550;2023-10-09T08:44:20;17.50;78.40
10089;DHT22;51898;49.864;8.550;2023-10-09T08:47:24;17.50;78.40
10089;DHT22;51898;49.864;8.550;2023-10-09T08:50:26;17.50;78.60
10089;DHT22;51898;49.864;8.550;2023-10-09T08:53:30;17.50;78.40
10089;DHT22;51898;49.864;8.550;2023-10-09T08:56:33;17.50;78.60
10089;DHT22;51898;49.864;8.550;2023-10-09T08:59:41;17.50;78.20
10089;DHT22;51898;49.864;8.550;2023-10-09T09:02:47;17.50;78.10
10089;DHT22;51898;49.864;8.550;2023-10-09T09:06:00;17.60;78.20
10089;DHT22;51898;49.864;8.550;2023-10-09T09:09:10;17.60;78.00
10089;DHT22;51898;49.864;8.550;2023-10-09T09:12:16;17.60;77.90
10089;DHT22;51898;49.864;8.550;2023-10-09T09:15:17;17.60;78.00
10089;DHT22;51898;49.864;8.550;2023-10-09T09:18:20;17.70;78.10
10089;DHT22;51898;49.864;8.550;2023-10-09T09:21:23;17.70;78.20
10089;DHT22;51898;49.864;8.550;2023-10-09T09:24:25;17.80;77.90
10089;DHT22;51898;49.864;8.550;2023-10-09T09:27:46;17.80;77.70
10089;DHT22;51898;49.864;8.550;2023-10-09T09:30:53;17.90;77.80
10089;DHT22;51898;49.864;8.550;2023-10-09T09:33:57;17.90;77.40
10089;DHT22;51898;49.864;8.550;2023-10-09T09:37:05;17.90;77.20
10089;DHT22;51898;49.864;8.550;2023-10-09T09:40:15;17.90;77.30
10089;DHT22;51898;49.864;8.550;2023-10-09T09:43:17;18.00;76.90
10089;DHT22;51898;49.864;8.550;2023-10-09T09:46:24;18.10;76.70
10089;DHT22;51898;49.864;8.550;2023-10-09T09:49:36;18.10;76.50
10089;DHT22;51898;49.864;8.550;2023-10-09T09:52:40;18.10;76.50
10089;DHT22;51898;49.864;8.550;2023-10-09T09:55:45;18.20;76.30
10089;DHT22;51898;49.864;8.550;2023-10-09T09:58:53;18.30;75.70
10089;DHT22;51898;49.864;8.550;2023-10-09T10:01:59;18.40;75.60
10089;DHT22;51898;49.864;8.550;2023-10-09T10:05:09;18.50;75.30
10089;DHT22;51898;49.864;8.550;2023-10-09T10:08:20;18.60;74.80
10089;DHT22;51898;49.864;8.550;2023-10-09T10:14:56;18.80;74.40
10089;DHT22;51898;49.864;8.550;2023-10-09T10:18:07;18.80;74.10
10089;DHT22;51898;49.864;8.550;2023-10-09T10:21:12;18.80;74.10
10089;DHT22;51898;49.864;8.550;2023-10-09T10:27:30;18.80;74.20
10089;DHT22;51898;49.864;8.550;2023-10-09T10:30:32;18.80;74.40
10089;DHT22;51898;49.864;8.550;2023-10-09T10:34:04;18.90;74.40
10089;DHT22;51898;49.864;8.550;2023-10-09T10:37:09;19.00;74.30
10089;DHT22;51898;49.864;8.550;2023-10-09T10:40:25;19.20;74.10
10089;DHT22;51898;49.864;8.550;2023-10-09T10:43:46;19.20;73.10
10089;DHT22;51898;49.864;8.550;2023-10-09T10:46:49;19.30;72.90
10089;DHT22;51898;49.864;8.550;2023-10-09T10:49:55;19.30;72.90
10089;DHT22;51898;49.864;8.550;2023-10-09T10:53:13;19.50;72.80
10089;DHT22;51898;49.864;8.550;2023-10-09T10:56:20;19.60;72.00
10089;DHT22;51898;49.864;8.550;2023-10-09T10:59:42;19.80;71.30
10089;DHT22;51898;49.864;8.550;2023-10-09T11:02:44;19.90;71.20
10089;DHT22;51898;49.864;8.550;2023-10-09T11:05:46;19.90;70.90
10089;DHT22;51898;49.864;8.550;2023-10-09T11:08:52;20.00;70.40
10089;DHT22;51898;49.864;8.550;2023-10-09T11:12:05;20.20;69.90
10089;DHT22;51898;49.864;8.550;2023-10-09T11:15:31;20.40;69.00
10089;DHT22;51898;49.864;8.550;2023-10-09T11:18:46;20.60;69.10
10089;DHT22;51898;49.864;8.550;2023-10-09T11:21:49;20.90;67.50
10089;DHT22;51898;49.864;8.550;2023-10-09T11:24:59;21.10;66.80
10089;DHT22;51898;49.864;8.550;2023-10-09T11:28:20;21.20;66.40
10089;DHT22;51898;49.864;8.550;2023-10-09T11:31:32;21.30;65.60
10089;DHT22;51898;49.864;8.550;2023-10-09T11:34:36;21.30;65.80
10089;DHT22;51898;49.864;8.550;2023-10-09T11:37:38;21.50;66.00
10089;DHT22;51898;49.864;8.550;2023-10-09T11:40:44;21.50;64.80
10089;DHT22;51898;49.864;8.550;2023-10-09T11:44:07;21.70;64.80
10089;DHT22;51898;49.864;8.550;2023-10-09T11:47:19;21.90;64.10
10089;DHT22;51898;49.864;8.550;2023-10-09T11:50:44;22.10;63.30
10089;DHT22;51898;49.864;8.550;2023-10-09T11:53:51;22.40;62.80
10089;DHT22;51898;49.864;8.550;2023-10-09T11:56:56;22.50;62.40
10089;DHT22;51898;49.864;8.550;2023-10-09T12:00:02;22.70;62.10
10089;DHT22;51898;49.864;8.550;2023-10-09T12:03:12;22.70;60.20
10089;DHT22;51898;49.864;8.550;2023-10-09T12:06:15;22.80;59.40
10089;DHT22;51898;49.864;8.550;2023-10-09T12:09:20;22.70;58.30
10089;DHT22;51898;49.864;8.550;2023-10-09T12:12:26;22.70;59.80
10089;DHT22;51898;49.864;8.550;2023-10-09T12:15:28;22.70;60.70
10089;DHT22;51898;49.864;8.550;2023-10-09T12:18:38;22.90;59.90
10089;DHT22;51898;49.864;8.550;2023-10-09T12:21:44;23.00;58.90
10089;DHT22;51898;49.864;8.550;2023-10-09T12:24:45;23.20;58.60
10089;DHT22;51898;49.864;8.550;2023-10-09T12:27:47;23.40;57.10
10089;DHT22;51898;49.864;8.550;2023-10-09T12:30:49;23.50;56.10
10089;DHT22;51898;49.864;8.550;2023-10-09T12:33:54;23.50;56.40
10089;DHT22;51898;49.864;8.550;2023-10-09T12:36:56;23.50;56.20
10089;DHT22;51898;49.864;8.550;2023-10-09T12:40:02;23.40;55.60
10089;DHT22;51898;49.864;8.550;2023-10-09T12:43:07;23.20;57.20
10089;DHT22;51898;49.864;8.550;2023-10-09T12:46:16;23.20;56.50
10089;DHT22;51898;49.864;8.550;2023-10-09T12:49:20;23.20;57.40
10089;DHT22;51898;49.864;8.550;2023-10-09T12:52:26;23.30;57.00
10089;DHT22;51898;49.864;8.550;2023-10-09T12:55:36;23.10;57.20
10089;DHT22;51898;49.864;8.550;2023-10-09T12:58:41;23.00;57.00
10089;DHT22;51898;49.864;8.550;2023-10-09T13:01:54;23.00;57.80
10089;DHT22;51898;49.864;8.550;2023-10-09T13:05:00;23.00;58.50
10089;DHT22;51898;49.864;8.550;2023-10-09T13:08:02;23.10;58.20
10089;DHT22;51898;49.864;8.550;2023-10-09T13:11:05;23.20;57.40
10089;DHT22;51898;49.864;8.550;2023-10-09T13:14:14;23.20;57.20
10089;DHT22;51898;49.864;8.550;2023-10-09T13:17:19;23.30;57.60
10089;DHT22;51898;49.864;8.550;2023-10-09T13:20:23;23.50;56.90
10089;DHT22;51898;49.864;8.550;2023-10-09T13:23:25;23.40;56.30
10089;DHT22;51898;49.864;8.550;2023-10-09T13:26:35;23.50;56.50
10089;DHT22;51898;49.864;8.550;2023-10-09T13:29:37;23.60;56.60
10089;DHT22;51898;49.864;8.550;2023-10-09T13:32:42;23.60;56.40
10089;DHT22;51898;49.864;8.550;2023-10-09T13:35:50;23.70;54.90
10089;DHT22;51898;49.864;8.550;2023-10-09T13:39:00;23.60;54.00
10089;DHT22;51898;49.864;8.550;2023-10-09T13:42:20;23.60;53.10
10089;DHT22;51898;49.864;8.550;2023-10-09T13:45:27;23.70;53.40
10089;DHT22;51898;49.864;8.550;2023-10-09T13:48:30;23.70;53.50
10089;DHT22;51898;49.864;8.550;2023-10-09T13:51:43;23.70;52.90
10089;DHT22;51898;49.864;8.550;2023-10-09T13:54:46;23.70;52.90
10089;DHT22;51898;49.864;8.550;2023-10-09T13:57:51;23.70;53.30
10089;DHT22;51898;49.864;8.550;2023-10-09T14:00:54;23.80;53.70
10089;DHT22;51898;49.864;8.550;2023-10-09T14:03:59;23.80;53.30
10089;DHT22;51898;49.864;8.550;2023-10-09T14:07:01;23.90;53.90
10089;DHT22;51898;49.864;8.550;2023-10-09T14:10:07;23.90;52.50
10089;DHT22;51898;49.864;8.550;2023-10-09T14:13:18;24.00;52.80
10089;DHT22;51898;49.864;8.550;2023-10-09T14:16:27;24.10;52.30
10089;DHT22;51898;49.864;8.550;2023-10-09T14:19:29;24.10;51.60
10089;DHT22;51898;49.864;8.550;2023-10-09T14:22:34;24.10;51.90
10089;DHT22;51898;49.864;8.550;2023-10-09T14:25:39;24.00;52.30
10089;DHT22;51898;49.864;8.550;2023-10-09T14:28:42;24.00;52.90
10089;DHT22;51898;49.864;8.550;2023-10-09T14:31:44;24.00;53.20
10089;DHT22;51898;49.864;8.550;2023-10-09T14:34:51;24.00;53.30
10089;DHT22;51898;49.864;8.550;2023-10-09T14:37:53;24.00;53.60
10089;DHT22;51898;49.864;8.550;2023-10-09T14:40:55;23.90;53.40
10089;DHT22;51898;49.864;8.550;2023-10-09T14:44:01;23.90;53.70
10089;DHT22;51898;49.864;8.550;2023-10-09T14:47:03;23.80;53.90
10089;DHT22;51898;49.864;8.550;2023-10-09T14:50:07;23.80;53.80
10089;DHT22;51898;49.864;8.550;2023-10-09T14:53:10;23.80;54.30
10089;DHT22;51898;49.864;8.550;2023-10-09T14:56:14;23.70;54.00
10089;DHT22;51898;49.864;8.550;2023-10-09T14:59:19;23.70;54.10
10089;DHT22;51898;49.864;8.550;2023-10-09T15:02:21;23.70;54.30
10089;DHT22;51898;49.864;8.550;2023-10-09T15:05:25;23.70;54.50
10089;DHT22;51898;49.864;8.550;2023-10-09T15:08:26;23.70;54.00
10089;DHT22;51898;49.864;8.550;2023-10-09T15:11:29;23.70;53.90
10089;DHT22;51898;49.864;8.550;2023-10-09T15:14:30;23.70;53.50
10089;DHT22;51898;49.864;8.550;2023-10-09T15:17:33;23.60;53.50
10089;DHT22;51898;49.864;8.550;2023-10-09T15:20:35;23.50;53.70
10089;DHT22;51898;49.864;8.550;2023-10-09T15:23:37;23.50;53.50
10089;DHT22;51898;49.864;8.550;2023-10-09T15:26:39;23.50;53.40
10089;DHT22;51898;49.864;8.550;2023-10-09T15:29:41;23.40;53.30
10089;DHT22;51898;49.864;8.550;2023-10-09T15:32:46;23.40;53.20
10089;DHT22;51898;49.864;8.550;2023-10-09T15:35:47;23.30;52.60
10089;DHT22;51898;49.864;8.550;2023-10-09T15:38:51;23.30;53.20
10089;DHT22;51898;49.864;8.550;2023-10-09T15:41:53;23.30;53.20
10089;DHT22;51898;49.864;8.550;2023-10-09T15:44:54;23.20;52.50
10089;DHT22;51898;49.864;8.550;2023-10-09T15:47:56;23.10;52.50
10089;DHT22;51898;49.864;8.550;2023-10-09T15:50:58;23.10;53.20
10089;DHT22;51898;49.864;8.550;2023-10-09T15:54:01;23.10;53.10
10089;DHT22;51898;49.864;8.550;2023-10-09T15:57:03;23.00;53.50
10089;DHT22;51898;49.864;8.550;2023-10-09T16:00:15;23.00;53.90
10089;DHT22;51898;49.864;8.550;2023-10-09T16:03:19;22.90;54.20
10089;DHT22;51898;49.864;8.550;2023-10-09T16:06:21;22.80;54.40
10089;DHT22;51898;49.864;8.550;2023-10-09T16:09:28;22.70;54.90
10089;DHT22;51898;49.864;8.550;2023-10-09T16:12:32;22.60;55.40
10089;DHT22;51898;49.864;8.550;2023-10-09T16:15:34;22.50;55.70
10089;DHT22;51898;49.864;8.550;2023-10-09T16:18:43;22.40;56.10
10089;DHT22;51898;49.864;8.550;2023-10-09T16:21:45;22.30;56.70
10089;DHT22;51898;49.864;8.550;2023-10-09T16:24:48;22.20;57.20
10089;DHT22;51898;49.864;8.550;2023-10-09T16:27:51;22.10;57.70
10089;DHT22;51898;49.864;8.550;2023-10-09T16:30:54;21.90;58.30
10089;DHT22;51898;49.864;8.550;2023-10-09T16:33:58;21.80;58.50
10089;DHT22;51898;49.864;8.550;2023-10-09T16:37:00;21.60;59.00
10089;DHT22;51898;49.864;8.550;2023-10-09T16:40:02;21.50;59.50
10089;DHT22;51898;49.864;8.550;2023-10-09T16:43:07;21.40;60.20
10089;DHT22;51898;49.864;8.550;2023-10-09T16:46:15;21.20;60.70
10089;DHT22;51898;49.864;8.550;2023-10-09T16:49:18;21.10;61.10
10089;DHT22;51898;49.864;8.550;2023-10-09T16:52:20;21.00;61.60
10089;DHT22;51898;49.864;8.550;2023-10-09T16:55:23;20.90;61.90
10089;DHT22;51898;49.864;8.550;2023-10-09T16:58:26;20.80;62.40
10089;DHT22;51898;49.864;8.550;2023-10-09T17:01:28;20.70;62.70
10089;DHT22;51898;49.864;8.550;2023-10-09T17:04:30;20.60;62.80
10089;DHT22;51898;49.864;8.550;2023-10-09T17:07:35;20.50;63.80
10089;DHT22;51898;49.864;8.550;2023-10-09T17:10:37;20.50;64.40
10089;DHT22;51898;49.864;8.550;2023-10-09T17:13:47;20.30;65.20
10089;DHT22;51898;49.864;8.550;2023-10-09T17:16:54;20.30;65.40
10089;DHT22;51898;49.864;8.550;2023-10-09T17:20:00;20.20;66.00
10089;DHT22;51898;49.864;8.550;2023-10-09T17:23:11;20.10;66.50
10089;DHT22;51898;49.864;8.550;2023-10-09T17:26:13;20.10;66.60
10089;DHT22;51898;49.864;8.550;2023-10-09T17:29:20;20.00;66.70
10089;DHT22;51898;49.864;8.550;2023-10-09T17:32:21;19.90;66.70
10089;DHT22;51898;49.864;8.550;2023-10-09T17:35:23;19.80;66.70
10089;DHT22;51898;49.864;8.550;2023-10-09T17:38:25;19.80;66.70
10089;DHT22;51898;49.864;8.550;2023-10-09T17:41:27;19.70;66.20
10089;DHT22;51898;49.864;8.550;2023-10-09T17:44:32;19.70;66.00
10089;DHT22;51898;49.864;8.550;2023-10-09T17:47:34;19.70;65.80
10089;DHT22;51898;49.864;8.550;2023-10-09T17:50:36;19.60;66.00
10089;DHT22;51898;49.864;8.550;2023-10-09T17:53:42;19.60;66.00
10089;DHT22;51898;49.864;8.550;2023-10-09T17:56:44;19.60;66.10
10089;DHT22;51898;49.864;8.550;2023-10-09T17:59:46;19.50;66.30
10089;DHT22;51898;49.864;8.550;2023-10-09T18:02:49;19.50;66.30
10089;DHT22;51898;49.864;8.550;2023-10-09T18:05:51;19.40;67.00
10089;DHT22;51898;49.864;8.550;2023-10-09T18:08:53;19.30;68.30
10089;DHT22;51898;49.864;8.550;2023-10-09T18:11:54;19.10;68.70
10089;DHT22;51898;49.864;8.550;2023-10-09T18:14:57;19.00;68.60
10089;DHT22;51898;49.864;8.550;2023-10-09T18:18:01;19.00;68.60
10089;DHT22;51898;49.864;8.550;2023-10-09T18:21:04;18.90;68.90
10089;DHT22;51898;49.864;8.550;2023-10-09T18:24:08;18.80;69.20
10089;DHT22;51898;49.864;8.550;2023-10-09T18:27:15;18.70;69.10
10089;DHT22;51898;49.864;8.550;2023-10-09T18:30:18;18.60;69.40
10089;DHT22;51898;49.864;8.550;2023-10-09T18:33:20;18.60;69.70
10089;DHT22;51898;49.864;8.550;2023-10-09T18:36:21;18.60;69.60
10089;DHT22;51898;49.864;8.550;2023-10-09T18:39:23;18.50;69.50
10089;DHT22;51898;49.864;8.550;2023-10-09T18:42:25;18.50;69.50
10089;DHT22;51898;49.864;8.550;2023-10-09T18:45:27;18.50;69.30
10089;DHT22;51898;49.864;8.550;2023-10-09T18:48:31;18.50;69.50
10089;DHT22;51898;49.864;8.550;2023-10-09T18:51:33;18.50;69.40
10089;DHT22;51898;49.864;8.550;2023-10-09T18:54:36;18.40;69.80
10089;DHT22;51898;49.864;8.550;2023-10-09T18:57:39;18.40;71.10
10089;DHT22;51898;49.864;8.550;2023-10-09T19:00:41;18.30;71.70
10089;DHT22;51898;49.864;8.550;2023-10-09T19:03:48;18.30;72.00
10089;DHT22;51898;49.864;8.550;2023-10-09T19:06:52;18.20;72.10
10089;DHT22;51898;49.864;8.550;2023-10-09T19:09:54;18.20;72.40
10089;DHT22;51898;49.864;8.550;2023-10-09T19:12:56;18.10;73.20
10089;DHT22;51898;49.864;8.550;2023-10-09T19:15:58;18.10;73.50
10089;DHT22;51898;49.864;8.550;2023-10-09T19:19:03;18.00;73.80
10089;DHT22;51898;49.864;8.550;2023-10-09T19:22:09;18.00;73.70
10089;DHT22;51898;49.864;8.550;2023-10-09T19:25:11;17.90;73.80
10089;DHT22;51898;49.864;8.550;2023-10-09T19:28:19;17.80;74.00
10089;DHT22;51898;49.864;8.550;2023-10-09T19:31:21;17.80;74.70
10089;DHT22;51898;49.864;8.550;2023-10-09T19:34:23;17.80;74.50
10089;DHT22;51898;49.864;8.550;2023-10-09T19:37:25;17.70;74.50
10089;DHT22;51898;49.864;8.550;2023-10-09T19:40:28;17.70;74.40
10089;DHT22;51898;49.864;8.550;2023-10-09T19:43:34;17.70;74.60
10089;DHT22;51898;49.864;8.550;2023-10-09T19:46:38;17.60;75.20